Terminal Aerodrome Forecast
Issued by NWS Caribou, ME

Home | Current Version | Previous Version | Text Only | Print | Product List | Glossary On
Versions: 1 2 3 4 5 6 7 8 9 10 11 12 13 14 15
000
FTUS41 KCAR 261720
TAFBGR
TAF
KBGR 261720Z 2618/2718 29007KT P6SM VCSH BKN040
     FM270000 29004KT P6SM FEW040
     FM270600 29004KT 4SM BR SCT005
     FM271100 28004KT P6SM FEW060=

USA.gov is the U.S. government's official web portal to all federal, state and local government web resources and services.